sensor_id;sensor_type;location;lat;lon;timestamp;pressure;altitude;pressure_sealevel;temperature;humidity
26978;BME280;56314;48.088;11.642;2024-02-16T00:00:38;95351.84;;;5.19;92.31
26978;BME280;56314;48.088;11.642;2024-02-16T00:03:04;95348.16;;;5.23;92.80
26978;BME280;56314;48.088;11.642;2024-02-16T00:05:30;95344.63;;;5.24;92.01
26978;BME280;56314;48.088;11.642;2024-02-16T00:07:55;95341.94;;;5.26;91.99
26978;BME280;56314;48.088;11.642;2024-02-16T00:10:20;95340.75;;;5.31;93.22
26978;BME280;56314;48.088;11.642;2024-02-16T00:12:47;95339.47;;;5.38;93.69
26978;BME280;56314;48.088;11.642;2024-02-16T00:15:12;95328.66;;;5.30;92.98
26978;BME280;56314;48.088;11.642;2024-02-16T00:17:38;95333.41;;;5.38;93.91
26978;BME280;56314;48.088;11.642;2024-02-16T00:20:04;95334.63;;;5.32;93.03
26978;BME280;56314;48.088;11.642;2024-02-16T00:22:32;95337.56;;;5.26;93.61
26978;BME280;56314;48.088;11.642;2024-02-16T00:24:58;95336.38;;;5.32;93.55
26978;BME280;56314;48.088;11.642;2024-02-16T00:27:23;95338.13;;;5.31;92.52
26978;BME280;56314;48.088;11.642;2024-02-16T00:29:48;95337.25;;;5.16;92.65
26978;BME280;56314;48.088;11.642;2024-02-16T00:32:14;95337.69;;;5.08;93.44
26978;BME280;56314;48.088;11.642;2024-02-16T00:34:40;95336.09;;;5.06;93.68
26978;BME280;56314;48.088;11.642;2024-02-16T00:37:06;95336.00;;;5.07;93.15
26978;BME280;56314;48.088;11.642;2024-02-16T00:39:38;95344.69;;;4.92;93.48
26978;BME280;56314;48.088;11.642;2024-02-16T00:42:05;95336.13;;;4.90;93.49
26978;BME280;56314;48.088;11.642;2024-02-16T00:44:31;95336.69;;;4.95;93.09
26978;BME280;56314;48.088;11.642;2024-02-16T00:46:56;95331.47;;;4.95;92.66
26978;BME280;56314;48.088;11.642;2024-02-16T00:49:21;95330.00;;;4.91;92.40
26978;BME280;56314;48.088;11.642;2024-02-16T00:51:47;95324.28;;;4.84;93.12
26978;BME280;56314;48.088;11.642;2024-02-16T00:54:13;95313.03;;;4.84;93.60
26978;BME280;56314;48.088;11.642;2024-02-16T00:56:38;95319.25;;;4.81;93.56
26978;BME280;56314;48.088;11.642;2024-02-16T00:59:04;95321.72;;;4.68;94.43
26978;BME280;56314;48.088;11.642;2024-02-16T01:01:30;95321.94;;;4.63;94.61
26978;BME280;56314;48.088;11.642;2024-02-16T01:03:55;95319.94;;;4.69;93.81
26978;BME280;56314;48.088;11.642;2024-02-16T01:06:21;95320.53;;;4.74;93.69
26978;BME280;56314;48.088;11.642;2024-02-16T01:08:46;95315.66;;;4.68;94.29
26978;BME280;56314;48.088;11.642;2024-02-16T01:11:12;95315.91;;;4.63;94.46
26978;BME280;56314;48.088;11.642;2024-02-16T01:13:39;95315.50;;;4.55;94.90
26978;BME280;56314;48.088;11.642;2024-02-16T01:16:05;95320.19;;;4.64;94.39
26978;BME280;56314;48.088;11.642;2024-02-16T01:18:30;95322.19;;;4.59;93.90
26978;BME280;56314;48.088;11.642;2024-02-16T01:20:58;95317.34;;;4.53;94.37
26978;BME280;56314;48.088;11.642;2024-02-16T01:23:23;95321.47;;;4.57;94.46
26978;BME280;56314;48.088;11.642;2024-02-16T01:25:48;95315.50;;;4.55;93.56
26978;BME280;56314;48.088;11.642;2024-02-16T01:28:14;95313.88;;;4.52;93.73
26978;BME280;56314;48.088;11.642;2024-02-16T01:30:40;95316.97;;;4.59;93.76
26978;BME280;56314;48.088;11.642;2024-02-16T01:33:06;95313.81;;;4.54;94.38
26978;BME280;56314;48.088;11.642;2024-02-16T01:35:35;95333.00;;;4.51;94.16
26978;BME280;56314;48.088;11.642;2024-02-16T01:38:00;95331.16;;;4.53;95.18
26978;BME280;56314;48.088;11.642;2024-02-16T01:40:26;95328.41;;;4.56;95.16
26978;BME280;56314;48.088;11.642;2024-02-16T01:42:52;95327.81;;;4.51;94.75
26978;BME280;56314;48.088;11.642;2024-02-16T01:45:21;95335.59;;;4.51;94.52
26978;BME280;56314;48.088;11.642;2024-02-16T01:47:49;95337.38;;;4.51;94.56
26978;BME280;56314;48.088;11.642;2024-02-16T01:50:16;95330.25;;;4.54;94.72
26978;BME280;56314;48.088;11.642;2024-02-16T01:52:45;95320.59;;;4.56;94.54
26978;BME280;56314;48.088;11.642;2024-02-16T01:55:11;95327.38;;;4.59;94.90
26978;BME280;56314;48.088;11.642;2024-02-16T01:57:43;95311.78;;;4.59;94.86
26978;BME280;56314;48.088;11.642;2024-02-16T02:00:09;95314.31;;;4.60;94.39
26978;BME280;56314;48.088;11.642;2024-02-16T02:02:35;95311.47;;;4.65;94.38
26978;BME280;56314;48.088;11.642;2024-02-16T02:05:01;95315.50;;;4.71;94.29
26978;BME280;56314;48.088;11.642;2024-02-16T02:07:27;95309.78;;;4.80;94.08
26978;BME280;56314;48.088;11.642;2024-02-16T02:09:53;95301.72;;;4.69;94.60
26978;BME280;56314;48.088;11.642;2024-02-16T02:12:19;95304.91;;;4.58;95.05
26978;BME280;56314;48.088;11.642;2024-02-16T02:14:45;95302.13;;;4.61;95.27
26978;BME280;56314;48.088;11.642;2024-02-16T02:17:11;95312.63;;;4.59;95.39
26978;BME280;56314;48.088;11.642;2024-02-16T02:19:37;95301.97;;;4.64;96.24
26978;BME280;56314;48.088;11.642;2024-02-16T02:22:02;95297.53;;;4.66;96.18
26978;BME280;56314;48.088;11.642;2024-02-16T02:24:27;95300.97;;;4.67;95.99
26978;BME280;56314;48.088;11.642;2024-02-16T02:26:53;95300.13;;;4.66;96.19
26978;BME280;56314;48.088;11.642;2024-02-16T02:29:18;95293.41;;;4.78;94.64
26978;BME280;56314;48.088;11.642;2024-02-16T02:31:45;95296.94;;;4.77;93.89
26978;BME280;56314;48.088;11.642;2024-02-16T02:34:10;95294.81;;;4.84;94.12
26978;BME280;56314;48.088;11.642;2024-02-16T02:36:36;95297.78;;;4.77;93.69
26978;BME280;56314;48.088;11.642;2024-02-16T02:39:01;95300.28;;;4.79;93.79
26978;BME280;56314;48.088;11.642;2024-02-16T02:41:26;95294.16;;;4.80;93.86
26978;BME280;56314;48.088;11.642;2024-02-16T02:43:52;95298.88;;;4.73;93.94
26978;BME280;56314;48.088;11.642;2024-02-16T02:46:18;95292.84;;;4.73;93.03
26978;BME280;56314;48.088;11.642;2024-02-16T02:48:44;95292.06;;;4.71;92.14
26978;BME280;56314;48.088;11.642;2024-02-16T02:51:10;95288.88;;;4.66;91.92
26978;BME280;56314;48.088;11.642;2024-02-16T02:53:35;95288.63;;;4.70;90.79
26978;BME280;56314;48.088;11.642;2024-02-16T02:56:02;95287.13;;;4.66;91.03
26978;BME280;56314;48.088;11.642;2024-02-16T02:58:27;95283.00;;;4.62;91.88
26978;BME280;56314;48.088;11.642;2024-02-16T03:00:53;95291.56;;;4.64;91.29
26978;BME280;56314;48.088;11.642;2024-02-16T03:03:19;95289.97;;;4.77;91.96
26978;BME280;56314;48.088;11.642;2024-02-16T03:05:45;95293.09;;;4.68;91.53
26978;BME280;56314;48.088;11.642;2024-02-16T03:08:10;95301.63;;;4.70;90.88
26978;BME280;56314;48.088;11.642;2024-02-16T03:10:36;95307.19;;;4.64;91.28
26978;BME280;56314;48.088;11.642;2024-02-16T03:13:02;95307.09;;;4.66;91.46
26978;BME280;56314;48.088;11.642;2024-02-16T03:15:28;95303.97;;;4.59;90.88
26978;BME280;56314;48.088;11.642;2024-02-16T03:17:54;95299.13;;;4.69;90.53
26978;BME280;56314;48.088;11.642;2024-02-16T03:20:20;95305.50;;;4.63;89.52
26978;BME280;56314;48.088;11.642;2024-02-16T03:22:46;95309.63;;;4.67;89.56
26978;BME280;56314;48.088;11.642;2024-02-16T03:25:12;95306.41;;;4.62;88.94
26978;BME280;56314;48.088;11.642;2024-02-16T03:27:38;95316.97;;;4.59;88.88
26978;BME280;56314;48.088;11.642;2024-02-16T03:30:04;95312.81;;;4.56;89.22
26978;BME280;56314;48.088;11.642;2024-02-16T03:32:31;95308.38;;;4.58;89.49
26978;BME280;56314;48.088;11.642;2024-02-16T03:34:59;95311.78;;;4.59;90.10
26978;BME280;56314;48.088;11.642;2024-02-16T03:37:25;95313.31;;;4.63;88.59
26978;BME280;56314;48.088;11.642;2024-02-16T03:39:50;95317.22;;;4.70;87.69
26978;BME280;56314;48.088;11.642;2024-02-16T03:42:16;95317.94;;;4.74;86.62
26978;BME280;56314;48.088;11.642;2024-02-16T03:44:43;95323.63;;;4.81;86.30
26978;BME280;56314;48.088;11.642;2024-02-16T03:47:08;95320.06;;;4.82;86.02
26978;BME280;56314;48.088;11.642;2024-02-16T03:49:34;95320.34;;;4.77;86.12
26978;BME280;56314;48.088;11.642;2024-02-16T03:51:59;95323.34;;;4.69;86.37
26978;BME280;56314;48.088;11.642;2024-02-16T03:54:25;95323.28;;;4.71;85.77
26978;BME280;56314;48.088;11.642;2024-02-16T03:56:55;95323.81;;;4.61;85.73
26978;BME280;56314;48.088;11.642;2024-02-16T03:59:21;95327.22;;;4.62;85.82
26978;BME280;56314;48.088;11.642;2024-02-16T04:01:46;95325.81;;;4.56;85.74
26978;BME280;56314;48.088;11.642;2024-02-16T04:04:12;95331.59;;;4.61;84.85
26978;BME280;56314;48.088;11.642;2024-02-16T04:06:38;95343.25;;;4.54;86.23
26978;BME280;56314;48.088;11.642;2024-02-16T04:09:04;95344.00;;;4.56;85.93
26978;BME280;56314;48.088;11.642;2024-02-16T04:11:33;95341.75;;;4.50;85.96
26978;BME280;56314;48.088;11.642;2024-02-16T04:13:59;95340.31;;;4.44;86.05
26978;BME280;56314;48.088;11.642;2024-02-16T04:16:24;95338.28;;;4.50;86.58
26978;BME280;56314;48.088;11.642;2024-02-16T04:18:52;95340.41;;;4.59;85.63
26978;BME280;56314;48.088;11.642;2024-02-16T04:21:18;95327.59;;;4.56;85.46
26978;BME280;56314;48.088;11.642;2024-02-16T04:23:44;95331.94;;;4.55;85.88
26978;BME280;56314;48.088;11.642;2024-02-16T04:26:09;95329.31;;;4.55;85.77
26978;BME280;56314;48.088;11.642;2024-02-16T04:28:35;95336.81;;;4.61;85.32
26978;BME280;56314;48.088;11.642;2024-02-16T04:31:01;95337.97;;;4.56;84.66
26978;BME280;56314;48.088;11.642;2024-02-16T04:33:27;95338.91;;;4.55;85.24
26978;BME280;56314;48.088;11.642;2024-02-16T04:35:52;95344.78;;;4.58;85.50
26978;BME280;56314;48.088;11.642;2024-02-16T04:38:18;95332.78;;;4.56;85.12
26978;BME280;56314;48.088;11.642;2024-02-16T04:40:45;95343.91;;;4.58;84.55
26978;BME280;56314;48.088;11.642;2024-02-16T04:43:10;95336.63;;;4.65;83.32
26978;BME280;56314;48.088;11.642;2024-02-16T04:45:35;95343.75;;;4.61;83.66
26978;BME280;56314;48.088;11.642;2024-02-16T04:48:05;95341.81;;;4.65;83.76
26978;BME280;56314;48.088;11.642;2024-02-16T04:50:32;95347.22;;;4.61;84.16
26978;BME280;56314;48.088;11.642;2024-02-16T04:52:57;95337.06;;;4.57;85.07
26978;BME280;56314;48.088;11.642;2024-02-16T04:55:22;95335.53;;;4.69;84.22
26978;BME280;56314;48.088;11.642;2024-02-16T04:57:48;95334.72;;;4.68;84.45
26978;BME280;56314;48.088;11.642;2024-02-16T05:00:14;95333.53;;;4.74;84.36
26978;BME280;56314;48.088;11.642;2024-02-16T05:02:39;95331.75;;;4.74;84.58
26978;BME280;56314;48.088;11.642;2024-02-16T05:05:05;95333.28;;;4.78;85.26
26978;BME280;56314;48.088;11.642;2024-02-16T05:07:30;95328.84;;;4.81;84.81
26978;BME280;56314;48.088;11.642;2024-02-16T05:10:01;95334.88;;;4.81;84.51
26978;BME280;56314;48.088;11.642;2024-02-16T05:12:27;95337.63;;;4.78;84.31
26978;BME280;56314;48.088;11.642;2024-02-16T05:14:52;95335.13;;;4.76;84.04
26978;BME280;56314;48.088;11.642;2024-02-16T05:17:18;95342.16;;;4.74;84.68
26978;BME280;56314;48.088;11.642;2024-02-16T05:19:44;95336.97;;;4.74;84.23
26978;BME280;56314;48.088;11.642;2024-02-16T05:22:10;95329.81;;;4.78;84.79
26978;BME280;56314;48.088;11.642;2024-02-16T05:24:35;95331.44;;;4.81;85.09
26978;BME280;56314;48.088;11.642;2024-02-16T05:27:01;95340.16;;;4.80;84.10
26978;BME280;56314;48.088;11.642;2024-02-16T05:29:26;95336.88;;;4.76;83.03
26978;BME280;56314;48.088;11.642;2024-02-16T05:31:52;95336.19;;;4.72;82.96
26978;BME280;56314;48.088;11.642;2024-02-16T05:34:18;95339.06;;;4.84;84.23
26978;BME280;56314;48.088;11.642;2024-02-16T05:36:43;95340.47;;;4.89;84.44
26978;BME280;56314;48.088;11.642;2024-02-16T05:39:10;95334.34;;;4.90;84.42
26978;BME280;56314;48.088;11.642;2024-02-16T05:41:48;95340.66;;;4.86;84.94
26978;BME280;56314;48.088;11.642;2024-02-16T05:44:13;95339.00;;;4.85;84.73
26978;BME280;56314;48.088;11.642;2024-02-16T05:46:39;95339.00;;;4.85;84.20
26978;BME280;56314;48.088;11.642;2024-02-16T05:49:05;95336.03;;;4.91;84.31
26978;BME280;56314;48.088;11.642;2024-02-16T05:51:36;95340.66;;;5.02;83.65
26978;BME280;56314;48.088;11.642;2024-02-16T05:54:03;95341.56;;;5.01;83.19
26978;BME280;56314;48.088;11.642;2024-02-16T05:56:28;95336.38;;;5.01;82.83
26978;BME280;56314;48.088;11.642;2024-02-16T05:58:54;95340.72;;;5.01;82.64
26978;BME280;56314;48.088;11.642;2024-02-16T06:01:19;95342.31;;;5.03;82.50
26978;BME280;56314;48.088;11.642;2024-02-16T06:03:45;95346.41;;;5.07;83.63
26978;BME280;56314;48.088;11.642;2024-02-16T06:06:10;95344.16;;;5.17;81.04
26978;BME280;56314;48.088;11.642;2024-02-16T06:08:35;95343.56;;;5.12;81.89
26978;BME280;56314;48.088;11.642;2024-02-16T06:11:01;95347.28;;;5.08;81.78
26978;BME280;56314;48.088;11.642;2024-02-16T06:13:27;95348.44;;;5.02;82.48
26978;BME280;56314;48.088;11.642;2024-02-16T06:15:54;95355.66;;;4.97;83.16
26978;BME280;56314;48.088;11.642;2024-02-16T06:18:20;95350.28;;;5.00;84.27
26978;BME280;56314;48.088;11.642;2024-02-16T06:20:45;95350.41;;;4.99;84.25
26978;BME280;56314;48.088;11.642;2024-02-16T06:23:11;95352.81;;;5.02;84.60
26978;BME280;56314;48.088;11.642;2024-02-16T06:25:36;95350.69;;;5.08;83.83
26978;BME280;56314;48.088;11.642;2024-02-16T06:28:02;95364.38;;;5.12;83.60
26978;BME280;56314;48.088;11.642;2024-02-16T06:30:28;95367.72;;;5.14;82.80
26978;BME280;56314;48.088;11.642;2024-02-16T06:32:53;95367.66;;;5.16;82.43
26978;BME280;56314;48.088;11.642;2024-02-16T06:35:20;95370.94;;;5.19;81.84
26978;BME280;56314;48.088;11.642;2024-02-16T06:37:45;95380.97;;;5.26;81.89
26978;BME280;56314;48.088;11.642;2024-02-16T06:40:11;95385.09;;;5.30;81.89
26978;BME280;56314;48.088;11.642;2024-02-16T06:42:37;95395.25;;;5.34;81.96
26978;BME280;56314;48.088;11.642;2024-02-16T06:45:03;95399.28;;;5.40;81.51
26978;BME280;56314;48.088;11.642;2024-02-16T06:47:33;95404.81;;;5.50;81.47
26978;BME280;56314;48.088;11.642;2024-02-16T06:49:59;95416.72;;;5.54;80.60
26978;BME280;56314;48.088;11.642;2024-02-16T06:52:24;95411.06;;;5.62;81.65
26978;BME280;56314;48.088;11.642;2024-02-16T06:54:49;95413.25;;;5.69;80.66
26978;BME280;56314;48.088;11.642;2024-02-16T06:57:15;95415.69;;;5.73;81.44
26978;BME280;56314;48.088;11.642;2024-02-16T06:59:41;95419.59;;;5.80;81.22
26978;BME280;56314;48.088;11.642;2024-02-16T07:02:08;95417.41;;;5.88;81.38
26978;BME280;56314;48.088;11.642;2024-02-16T07:04:35;95422.25;;;5.94;80.67
26978;BME280;56314;48.088;11.642;2024-02-16T07:07:01;95424.81;;;6.10;81.53
26978;BME280;56314;48.088;11.642;2024-02-16T07:09:26;95423.56;;;6.18;80.43
26978;BME280;56314;48.088;11.642;2024-02-16T07:11:52;95428.38;;;6.24;80.33
26978;BME280;56314;48.088;11.642;2024-02-16T07:14:18;95435.59;;;6.35;79.71
26978;BME280;56314;48.088;11.642;2024-02-16T07:16:43;95441.47;;;6.53;78.13
26978;BME280;56314;48.088;11.642;2024-02-16T07:19:08;95441.06;;;6.59;77.02
26978;BME280;56314;48.088;11.642;2024-02-16T07:21:34;95436.25;;;6.67;77.23
26978;BME280;56314;48.088;11.642;2024-02-16T07:23:59;95440.44;;;6.84;75.71
26978;BME280;56314;48.088;11.642;2024-02-16T07:26:25;95439.84;;;6.93;76.04
26978;BME280;56314;48.088;11.642;2024-02-16T07:28:50;95440.56;;;7.10;74.51
26978;BME280;56314;48.088;11.642;2024-02-16T07:31:15;95441.19;;;7.28;73.77
26978;BME280;56314;48.088;11.642;2024-02-16T07:33:42;95441.06;;;7.44;72.16
26978;BME280;56314;48.088;11.642;2024-02-16T07:36:07;95436.38;;;7.49;72.01
26978;BME280;56314;48.088;11.642;2024-02-16T07:38:33;95441.66;;;7.62;71.84
26978;BME280;56314;48.088;11.642;2024-02-16T07:40:58;95440.13;;;7.73;71.17
26978;BME280;56314;48.088;11.642;2024-02-16T07:43:25;95445.38;;;7.85;71.07
26978;BME280;56314;48.088;11.642;2024-02-16T07:45:50;95438.50;;;7.97;70.45
26978;BME280;56314;48.088;11.642;2024-02-16T07:48:19;95444.38;;;8.14;70.62
26978;BME280;56314;48.088;11.642;2024-02-16T07:50:46;95441.47;;;8.31;69.88
26978;BME280;56314;48.088;11.642;2024-02-16T07:53:12;95440.16;;;8.52;69.27
26978;BME280;56314;48.088;11.642;2024-02-16T07:55:37;95440.78;;;8.81;68.52
26978;BME280;56314;48.088;11.642;2024-02-16T07:58:02;95440.66;;;9.33;66.33
26978;BME280;56314;48.088;11.642;2024-02-16T08:00:28;95434.59;;;9.81;64.03
26978;BME280;56314;48.088;11.642;2024-02-16T08:02:53;95433.31;;;9.86;64.01
26978;BME280;56314;48.088;11.642;2024-02-16T08:05:19;95433.34;;;10.34;63.78
26978;BME280;56314;48.088;11.642;2024-02-16T08:07:46;95433.06;;;10.84;61.81
26978;BME280;56314;48.088;11.642;2024-02-16T08:10:12;95433.41;;;10.90;61.61
26978;BME280;56314;48.088;11.642;2024-02-16T08:12:37;95428.63;;;11.30;61.33
26978;BME280;56314;48.088;11.642;2024-02-16T08:15:04;95433.88;;;11.30;60.20
26978;BME280;56314;48.088;11.642;2024-02-16T08:17:32;95431.50;;;11.15;60.27
26978;BME280;56314;48.088;11.642;2024-02-16T08:19:57;95444.28;;;10.97;59.04
26978;BME280;56314;48.088;11.642;2024-02-16T08:22:23;95445.59;;;10.80;58.79
26978;BME280;56314;48.088;11.642;2024-02-16T08:24:49;95439.50;;;10.68;59.37
26978;BME280;56314;48.088;11.642;2024-02-16T08:27:15;95445.22;;;10.62;59.92
26978;BME280;56314;48.088;11.642;2024-02-16T08:29:41;95446.19;;;10.61;61.77
26978;BME280;56314;48.088;11.642;2024-02-16T08:32:07;95448.91;;;10.59;62.92
26978;BME280;56314;48.088;11.642;2024-02-16T08:34:34;95446.78;;;10.65;60.78
26978;BME280;56314;48.088;11.642;2024-02-16T08:37:02;95447.59;;;10.76;59.20
26978;BME280;56314;48.088;11.642;2024-02-16T08:39:28;95437.59;;;10.82;58.17
26978;BME280;56314;48.088;11.642;2024-02-16T08:41:55;95446.44;;;10.92;57.70
26978;BME280;56314;48.088;11.642;2024-02-16T08:44:20;95445.59;;;11.03;58.05
26978;BME280;56314;48.088;11.642;2024-02-16T08:46:45;95448.09;;;11.16;57.46
26978;BME280;56314;48.088;11.642;2024-02-16T08:49:14;95450.47;;;11.30;56.03
26978;BME280;56314;48.088;11.642;2024-02-16T08:51:40;95446.63;;;11.46;55.72
26978;BME280;56314;48.088;11.642;2024-02-16T08:54:06;95442.47;;;11.76;54.71
26978;BME280;56314;48.088;11.642;2024-02-16T08:56:31;95445.91;;;11.88;54.86
26978;BME280;56314;48.088;11.642;2024-02-16T08:58:57;95452.69;;;12.01;55.11
26978;BME280;56314;48.088;11.642;2024-02-16T09:01:35;95442.91;;;12.25;53.63
26978;BME280;56314;48.088;11.642;2024-02-16T09:04:01;95440.34;;;12.56;52.76
26978;BME280;56314;48.088;11.642;2024-02-16T09:06:28;95432.38;;;12.98;51.41
26978;BME280;56314;48.088;11.642;2024-02-16T09:08:54;95430.50;;;13.20;50.25
26978;BME280;56314;48.088;11.642;2024-02-16T09:11:20;95437.19;;;13.34;49.73
26978;BME280;56314;48.088;11.642;2024-02-16T09:13:46;95427.06;;;13.29;49.51
26978;BME280;56314;48.088;11.642;2024-02-16T09:16:11;95434.63;;;13.13;49.80
26978;BME280;56314;48.088;11.642;2024-02-16T09:18:37;95432.59;;;13.16;50.35
26978;BME280;56314;48.088;11.642;2024-02-16T09:21:03;95438.78;;;13.46;49.38
26978;BME280;56314;48.088;11.642;2024-02-16T09:23:28;95440.63;;;13.65;47.80
26978;BME280;56314;48.088;11.642;2024-02-16T09:25:54;95436.50;;;13.82;47.99
26978;BME280;56314;48.088;11.642;2024-02-16T09:28:20;95439.69;;;13.86;47.64
26978;BME280;56314;48.088;11.642;2024-02-16T09:30:46;95444.69;;;13.89;47.08
26978;BME280;56314;48.088;11.642;2024-02-16T09:33:11;95446.91;;;13.94;46.57
26978;BME280;56314;48.088;11.642;2024-02-16T09:35:37;95444.56;;;14.00;46.71
26978;BME280;56314;48.088;11.642;2024-02-16T09:38:03;95443.59;;;14.21;45.54
26978;BME280;56314;48.088;11.642;2024-02-16T09:40:28;95441.63;;;14.33;44.80
26978;BME280;56314;48.088;11.642;2024-02-16T09:42:54;95435.66;;;14.41;44.35
26978;BME280;56314;48.088;11.642;2024-02-16T09:45:19;95441.06;;;14.59;44.07
26978;BME280;56314;48.088;11.642;2024-02-16T09:47:46;95442.16;;;14.76;43.20
26978;BME280;56314;48.088;11.642;2024-02-16T09:50:15;95436.69;;;14.87;42.60
26978;BME280;56314;48.088;11.642;2024-02-16T09:52:41;95437.13;;;14.83;43.69
26978;BME280;56314;48.088;11.642;2024-02-16T09:55:10;95428.41;;;15.10;42.24
26978;BME280;56314;48.088;11.642;2024-02-16T09:57:37;95444.56;;;15.63;42.09
26978;BME280;56314;48.088;11.642;2024-02-16T10:00:03;95438.19;;;16.20;40.33
26978;BME280;56314;48.088;11.642;2024-02-16T10:02:45;95434.66;;;16.55;39.34
26978;BME280;56314;48.088;11.642;2024-02-16T10:05:14;95434.78;;;16.45;39.76
26978;BME280;56314;48.088;11.642;2024-02-16T10:07:41;95437.16;;;16.83;40.02
26978;BME280;56314;48.088;11.642;2024-02-16T10:10:19;95426.38;;;17.03;39.04
26978;BME280;56314;48.088;11.642;2024-02-16T10:12:46;95431.44;;;17.65;38.15
26978;BME280;56314;48.088;11.642;2024-02-16T10:15:11;95429.03;;;18.96;35.86
26978;BME280;56314;48.088;11.642;2024-02-16T10:17:36;95427.16;;;20.63;33.89
26978;BME280;56314;48.088;11.642;2024-02-16T10:20:02;95418.78;;;21.49;31.65
26978;BME280;56314;48.088;11.642;2024-02-16T10:22:31;95410.88;;;22.14;29.73
26978;BME280;56314;48.088;11.642;2024-02-16T10:25:09;95404.09;;;22.55;29.02
26978;BME280;56314;48.088;11.642;2024-02-16T10:27:38;95408.66;;;22.39;29.37
26978;BME280;56314;48.088;11.642;2024-02-16T10:30:07;95408.72;;;22.68;29.77
26978;BME280;56314;48.088;11.642;2024-02-16T10:32:38;95406.94;;;23.10;29.55
26978;BME280;56314;48.088;11.642;2024-02-16T10:35:06;95407.38;;;23.42;28.38
26978;BME280;56314;48.088;11.642;2024-02-16T10:37:33;95405.28;;;23.86;27.46
26978;BME280;56314;48.088;11.642;2024-02-16T10:39:59;95399.41;;;24.31;27.61
26978;BME280;56314;48.088;11.642;2024-02-16T10:42:27;95406.22;;;24.54;26.95
26978;BME280;56314;48.088;11.642;2024-02-16T10:44:53;95402.50;;;24.48;26.91
26978;BME280;56314;48.088;11.642;2024-02-16T10:47:18;95407.25;;;24.26;25.59
26978;BME280;56314;48.088;11.642;2024-02-16T10:49:44;95406.63;;;23.20;26.65
26978;BME280;56314;48.088;11.642;2024-02-16T10:52:11;95414.69;;;21.83;28.16
26978;BME280;56314;48.088;11.642;2024-02-16T10:54:38;95416.91;;;20.51;30.23
26978;BME280;56314;48.088;11.642;2024-02-16T10:57:08;95426.22;;;19.77;31.51
26978;BME280;56314;48.088;11.642;2024-02-16T10:59:41;95429.09;;;19.36;32.55
26978;BME280;56314;48.088;11.642;2024-02-16T11:02:08;95424.03;;;19.49;33.12
26978;BME280;56314;48.088;11.642;2024-02-16T11:04:37;95418.69;;;19.58;32.39
26978;BME280;56314;48.088;11.642;2024-02-16T11:07:15;95418.19;;;19.85;32.16
26978;BME280;56314;48.088;11.642;2024-02-16T11:09:40;95417.22;;;20.33;31.52
26978;BME280;56314;48.088;11.642;2024-02-16T11:12:07;95419.38;;;20.38;32.43
26978;BME280;56314;48.088;11.642;2024-02-16T11:14:47;95412.19;;;20.38;31.68
26978;BME280;56314;48.088;11.642;2024-02-16T11:17:22;95405.63;;;20.64;31.77
26978;BME280;56314;48.088;11.642;2024-02-16T11:19:48;95404.69;;;21.25;31.35
26978;BME280;56314;48.088;11.642;2024-02-16T11:22:20;95401.72;;;21.50;30.38
26978;BME280;56314;48.088;11.642;2024-02-16T11:24:48;95391.66;;;22.04;29.87
26978;BME280;56314;48.088;11.642;2024-02-16T11:27:14;95390.72;;;22.55;30.25
26978;BME280;56314;48.088;11.642;2024-02-16T11:29:46;95394.75;;;22.72;30.37
26978;BME280;56314;48.088;11.642;2024-02-16T11:32:12;95386.28;;;22.97;29.18
26978;BME280;56314;48.088;11.642;2024-02-16T11:34:37;95384.09;;;23.14;29.14
26978;BME280;56314;48.088;11.642;2024-02-16T11:37:04;95378.81;;;23.21;28.34
26978;BME280;56314;48.088;11.642;2024-02-16T11:39:30;95376.56;;;23.25;29.80
26978;BME280;56314;48.088;11.642;2024-02-16T11:44:30;95374.38;;;23.06;29.52
26978;BME280;56314;48.088;11.642;2024-02-16T11:46:57;95377.69;;;23.09;29.77
26978;BME280;56314;48.088;11.642;2024-02-16T11:49:22;95376.66;;;23.10;29.55
26978;BME280;56314;48.088;11.642;2024-02-16T11:51:48;95378.03;;;22.99;29.25
26978;BME280;56314;48.088;11.642;2024-02-16T11:54:13;95375.81;;;23.02;29.70
26978;BME280;56314;48.088;11.642;2024-02-16T11:56:43;95373.78;;;23.11;30.48
26978;BME280;56314;48.088;11.642;2024-02-16T11:59:12;95377.84;;;23.00;29.64
26978;BME280;56314;48.088;11.642;2024-02-16T12:01:51;95375.84;;;22.81;30.44
26978;BME280;56314;48.088;11.642;2024-02-16T12:04:25;95379.25;;;22.96;30.15
26978;BME280;56314;48.088;11.642;2024-02-16T12:06:52;95372.75;;;22.77;29.47
26978;BME280;56314;48.088;11.642;2024-02-16T12:09:18;95371.72;;;22.28;30.33
26978;BME280;56314;48.088;11.642;2024-02-16T12:11:44;95371.63;;;21.78;31.27
26978;BME280;56314;48.088;11.642;2024-02-16T12:14:10;95378.91;;;21.32;33.45
26978;BME280;56314;48.088;11.642;2024-02-16T12:16:37;95381.75;;;20.86;33.03
26978;BME280;56314;48.088;11.642;2024-02-16T12:19:05;95382.94;;;20.30;34.05
26978;BME280;56314;48.088;11.642;2024-02-16T12:21:31;95389.88;;;19.93;35.00
26978;BME280;56314;48.088;11.642;2024-02-16T12:23:56;95392.25;;;19.48;34.94
26978;BME280;56314;48.088;11.642;2024-02-16T12:26:22;95390.09;;;19.12;35.95
26978;BME280;56314;48.088;11.642;2024-02-16T12:28:48;95393.63;;;18.96;35.94
26978;BME280;56314;48.088;11.642;2024-02-16T12:31:20;95390.66;;;18.74;36.79
26978;BME280;56314;48.088;11.642;2024-02-16T12:33:46;95389.34;;;18.61;37.03
26978;BME280;56314;48.088;11.642;2024-02-16T12:36:11;95389.19;;;18.55;36.86
26978;BME280;56314;48.088;11.642;2024-02-16T12:38:36;95392.69;;;18.47;37.46
26978;BME280;56314;48.088;11.642;2024-02-16T12:41:02;95397.53;;;18.43;37.25
26978;BME280;56314;48.088;11.642;2024-02-16T12:43:27;95397.00;;;18.31;38.21
26978;BME280;56314;48.088;11.642;2024-02-16T12:45:52;95390.22;;;18.29;38.24
26978;BME280;56314;48.088;11.642;2024-02-16T12:48:18;95397.53;;;18.19;38.03
26978;BME280;56314;48.088;11.642;2024-02-16T12:50:43;95399.00;;;18.21;38.01
26978;BME280;56314;48.088;11.642;2024-02-16T12:53:09;95389.53;;;18.19;38.37
26978;BME280;56314;48.088;11.642;2024-02-16T12:55:35;95393.66;;;18.54;38.54